Terminal Aerodrome Forecast
Issued by NWS

Home | Current Version | Previous Version | Text Only | Print | Product List | Glossary Off
Versions: 1 2 3 4 5 6 7 8 9 10 11 12 13 14 15

372
FTUS45 KGGW 261122
TAFSDY
TAF
KSDY 261122Z 2612/2712 00000KT P6SM FEW140
     FM261800 15014KT P6SM SKC
     FM270500 15009KT P6SM FEW210 WS020/17040KT
     FM271000 17010KT P6SM SCT190=

USA.gov is the U.S. government's official web portal to all federal, state and local government web resources and services.